Time;durP1;ratioP1;P1;durP2;ratioP2;P2;SDS_P1;SDS_P2;PMS_P1;PMS_P2;Temp;Humidity;BMP_temperature;BMP_pressure;BME280_temperature;BME280_humidity;BME280_pressure;Samples;Min_cycle;Max_cycle;Signal;HPM_P1;HPM_P2
2023/12/26 00:00:26;;;;;;;31.42;20.58;;;;;;;6.96;53.38;95102.75;5109490;28;20028;-77
2023/12/26 00:02:51;;;;;;;46.35;23.95;;;;;;;6.93;53.50;95102.34;5108027;28;20028;-78
2023/12/26 00:05:17;;;;;;;43.17;25.08;;;;;;;6.86;54.11;95099.72;5108933;28;20024;-78
2023/12/26 00:07:42;;;;;;;38.55;22.77;;;;;;;6.80;54.08;95106.81;5108169;28;20023;-77
2023/12/26 00:10:08;;;;;;;42.60;21.65;;;;;;;6.80;53.67;95106.03;5108838;28;20055;-77
2023/12/26 00:12:33;;;;;;;34.58;18.45;;;;;;;6.82;53.35;95111.88;5108851;27;20034;-77
2023/12/26 00:14:58;;;;;;;29.63;17.02;;;;;;;6.77;52.79;95112.34;5108008;28;20100;-77
2023/12/26 00:17:24;;;;;;;28.55;16.52;;;;;;;6.73;52.93;95114.31;5109127;28;20051;-77
2023/12/26 00:19:49;;;;;;;32.40;18.55;;;;;;;6.78;52.81;95125.59;5107735;28;20027;-78
2023/12/26 00:22:15;;;;;;;30.13;16.17;;;;;;;6.71;52.82;95111.22;5108079;28;20094;-77
2023/12/26 00:24:41;;;;;;;27.35;16.33;;;;;;;6.69;52.73;95108.13;5107777;28;20386;-77
2023/12/26 00:27:06;;;;;;;29.02;16.52;;;;;;;6.61;52.95;95118.34;5108638;28;20024;-77
2023/12/26 00:29:32;;;;;;;28.05;15.55;;;;;;;6.62;53.08;95128.88;5108327;28;20020;-78
2023/12/26 00:31:57;;;;;;;31.40;16.98;;;;;;;6.57;53.26;95129.31;5108413;28;20486;-77
2023/12/26 00:34:23;;;;;;;29.42;17.25;;;;;;;6.51;53.62;95128.19;5108737;28;20109;-78
2023/12/26 00:36:48;;;;;;;30.98;17.52;;;;;;;6.53;54.10;95131.28;5108327;28;20556;-77
2023/12/26 00:39:14;;;;;;;30.05;17.60;;;;;;;6.53;54.15;95130.53;5108579;27;20549;-77
2023/12/26 00:41:39;;;;;;;35.17;19.63;;;;;;;6.50;54.33;95132.13;5107340;28;20451;-78
2023/12/26 00:44:05;;;;;;;36.42;20.05;;;;;;;6.51;54.36;95128.19;5108411;28;20513;-77
2023/12/26 00:46:32;;;;;;;38.47;20.95;;;;;;;6.50;54.57;95123.16;5089161;28;20039;-78
2023/12/26 00:48:57;;;;;;;37.63;19.17;;;;;;;6.46;54.89;95134.09;5106765;28;20038;-79
2023/12/26 00:51:23;;;;;;;30.67;18.80;;;;;;;6.46;55.47;95130.59;5107948;28;20036;-78
2023/12/26 00:53:48;;;;;;;28.58;17.50;;;;;;;6.46;55.01;95142.31;5107657;28;20039;-77
2023/12/26 00:56:14;;;;;;;30.75;17.58;;;;;;;6.43;55.54;95148.59;5108046;28;20027;-77
2023/12/26 00:58:39;;;;;;;32.63;16.40;;;;;;;6.39;55.71;95145.09;5106861;28;20073;-77
2023/12/26 01:01:05;;;;;;;24.85;15.60;;;;;;;6.36;55.45;95145.91;5108356;28;20080;-78
2023/12/26 01:03:30;;;;;;;27.17;15.30;;;;;;;6.34;55.86;95146.31;5106992;28;20092;-78
2023/12/26 01:05:56;;;;;;;23.88;14.55;;;;;;;6.39;55.25;95151.34;5108705;28;20024;-77
2023/12/26 01:08:21;;;;;;;27.23;14.23;;;;;;;6.34;55.50;95151.00;5107224;28;20390;-76
2023/12/26 01:10:47;;;;;;;27.85;15.15;;;;;;;6.37;55.07;95155.66;5107587;28;20028;-77
2023/12/26 01:13:12;;;;;;;23.85;13.98;;;;;;;6.31;54.81;95147.13;5107281;28;20054;-74
2023/12/26 01:15:38;;;;;;;29.50;15.63;;;;;;;6.25;54.74;95139.75;5106970;28;20031;-77
2023/12/26 01:18:04;;;;;;;30.42;14.55;;;;;;;6.26;54.52;95155.75;5107692;28;20027;-78
2023/12/26 01:20:29;;;;;;;28.00;15.13;;;;;;;6.17;54.92;95157.38;5106517;28;20050;-77
2023/12/26 01:22:55;;;;;;;28.27;15.88;;;;;;;6.19;55.05;95152.28;5107961;28;20043;-77
2023/12/26 01:25:21;;;;;;;30.33;15.45;;;;;;;6.08;55.51;95149.69;5106540;28;20118;-78
2023/12/26 01:27:47;;;;;;;29.88;16.60;;;;;;;6.01;55.47;95152.44;5107372;28;20537;-77
2023/12/26 01:30:13;;;;;;;26.50;15.00;;;;;;;5.86;55.70;95143.56;5106642;28;20518;-78
2023/12/26 01:32:39;;;;;;;24.25;13.98;;;;;;;5.85;55.80;95153.72;5106496;28;20035;-78
2023/12/26 01:35:05;;;;;;;23.13;13.43;;;;;;;5.78;56.05;95136.59;5107360;28;20024;-79
2023/12/26 01:37:30;;;;;;;24.33;13.52;;;;;;;5.86;55.57;95143.56;5106082;28;20027;-78
2023/12/26 01:39:56;;;;;;;29.85;15.35;;;;;;;5.81;56.44;95147.50;5107868;28;20024;-78
2023/12/26 01:42:22;;;;;;;26.27;14.05;;;;;;;5.82;55.74;95151.00;5105824;28;20431;-78
2023/12/26 01:44:47;;;;;;;26.52;14.90;;;;;;;5.71;55.76;95136.66;5107561;28;20108;-78
2023/12/26 01:47:13;;;;;;;29.25;15.20;;;;;;;5.78;56.15;95142.06;5106426;28;20027;-77
2023/12/26 01:49:38;;;;;;;28.77;16.13;;;;;;;5.80;56.71;95145.94;5105433;28;20027;-77
2023/12/26 01:52:05;;;;;;;27.50;16.35;;;;;;;5.89;56.50;95139.25;5105515;28;20023;-78
2023/12/26 01:54:31;;;;;;;27.92;14.82;;;;;;;5.83;56.58;95138.91;5104954;28;20077;-78
2023/12/26 01:56:57;;;;;;;27.83;14.73;;;;;;;5.80;56.85;95137.00;5107635;28;20172;-77
2023/12/26 01:59:23;;;;;;;24.85;13.57;;;;;;;5.88;56.38;95138.47;5104170;28;20505;-78
2023/12/26 02:01:48;;;;;;;23.05;13.10;;;;;;;5.89;56.12;95140.03;5107283;28;20035;-78
2023/12/26 02:04:14;;;;;;;20.73;11.82;;;;;;;5.86;56.32;95138.13;5104337;28;20413;-78
2023/12/26 02:06:40;;;;;;;20.38;11.88;;;;;;;5.95;55.91;95134.94;5105444;28;20031;-78
2023/12/26 02:09:05;;;;;;;18.20;9.75;;;;;;;5.95;56.03;95141.19;5106086;28;20038;-78
2023/12/26 02:11:32;;;;;;;23.08;12.32;;;;;;;5.96;55.67;95141.94;5106438;28;20189;-78
2023/12/26 02:13:57;;;;;;;16.08;9.40;;;;;;;5.89;55.89;95139.25;5106700;28;20072;-78
2023/12/26 02:16:25;;;;;;;22.63;11.10;;;;;;;5.90;55.25;95136.13;5105605;28;20466;-77
2023/12/26 02:18:51;;;;;;;19.42;10.88;;;;;;;5.91;54.71;95140.44;5106948;28;20035;-80
2023/12/26 02:21:17;;;;;;;17.42;10.68;;;;;;;5.87;54.91;95136.94;5105283;28;20027;-78
2023/12/26 02:23:43;;;;;;;15.68;10.32;;;;;;;5.83;54.80;95141.63;5106629;28;20033;-77
2023/12/26 02:26:09;;;;;;;21.02;10.30;;;;;;;5.84;54.95;95152.13;5105651;28;20036;-77
2023/12/26 02:28:35;;;;;;;22.38;11.35;;;;;;;5.80;54.94;95147.91;5105026;28;20073;-78
2023/12/26 02:31:02;;;;;;;19.45;10.02;;;;;;;5.76;54.94;95147.16;5106771;28;20027;-78
2023/12/26 02:33:29;;;;;;;16.88;9.82;;;;;;;5.75;54.93;95142.88;5105340;28;20035;-78
2023/12/26 02:35:55;;;;;;;18.27;10.27;;;;;;;5.62;54.85;95137.13;5107328;28;20027;-77
2023/12/26 02:38:20;;;;;;;15.05;9.70;;;;;;;5.70;54.95;95149.53;5103875;28;20113;-77
2023/12/26 02:40:51;;;;;;;18.55;10.50;;;;;;;5.64;55.14;95153.06;5105855;28;20036;-77
2023/12/26 02:43:18;;;;;;;20.95;12.38;;;;;;;5.63;55.23;95160.47;5104451;28;20070;-78
2023/12/26 02:45:48;;;;;;;20.10;10.80;;;;;;;5.61;55.45;95154.63;5105700;28;20024;-78
2023/12/26 02:48:14;;;;;;;23.10;11.45;;;;;;;5.57;55.43;95153.91;5106236;28;20043;-78
2023/12/26 02:50:39;;;;;;;20.80;11.48;;;;;;;5.59;55.70;95155.03;5104274;28;20027;-78
2023/12/26 02:53:05;;;;;;;20.33;11.43;;;;;;;5.60;55.66;95164.00;5107052;28;20024;-78
2023/12/26 02:55:30;;;;;;;20.25;10.63;;;;;;;5.52;55.77;95159.78;5105405;28;20544;-77
2023/12/26 02:57:55;;;;;;;20.83;12.00;;;;;;;5.52;55.66;95166.00;5106301;28;20497;-79
2023/12/26 03:00:21;;;;;;;22.20;11.70;;;;;;;5.45;56.18;95163.31;5105397;28;20059;-78
2023/12/26 03:02:46;;;;;;;20.95;11.98;;;;;;;5.42;56.31;95160.59;5106270;28;20116;-78
2023/12/26 03:05:12;;;;;;;18.67;11.35;;;;;;;5.42;56.06;95166.81;5105797;28;20031;-79
2023/12/26 03:07:38;;;;;;;20.05;10.82;;;;;;;5.33;56.30;95161.81;5105730;28;20031;-79
2023/12/26 03:10:07;;;;;;;19.92;12.40;;;;;;;5.31;56.44;95172.31;5106564;28;20035;-78
2023/12/26 03:12:32;;;;;;;22.70;12.35;;;;;;;5.31;56.27;95161.44;5105142;28;20081;-78
2023/12/26 03:14:58;;;;;;;25.15;11.80;;;;;;;5.27;56.20;95166.09;5106226;28;20035;-77
2023/12/26 03:17:25;;;;;;;30.58;17.55;;;;;;;5.21;57.37;95159.53;5105040;28;20028;-78
2023/12/26 03:19:51;;;;;;;35.80;19.05;;;;;;;5.12;58.33;95166.59;5106585;28;20030;-77
2023/12/26 03:22:18;;;;;;;36.03;20.30;;;;;;;5.11;58.29;95162.31;5105314;28;20020;-78
2023/12/26 03:24:44;;;;;;;37.47;19.58;;;;;;;5.11;57.95;95154.16;5105941;28;20035;-78
2023/12/26 03:27:10;;;;;;;33.72;18.00;;;;;;;5.03;57.92;95162.31;5105685;28;20141;-78
2023/12/26 03:29:36;;;;;;;34.83;20.20;;;;;;;4.97;58.18;95161.19;5105156;28;20031;-78
2023/12/26 03:32:01;;;;;;;35.92;20.92;;;;;;;4.99;58.55;95169.75;5106398;28;20202;-78
2023/12/26 03:34:27;;;;;;;38.67;20.92;;;;;;;4.99;58.33;95164.31;5104533;28;20031;-78
2023/12/26 03:36:52;;;;;;;28.88;17.25;;;;;;;5.00;58.47;95176.75;5106423;28;20023;-78
2023/12/26 03:39:18;;;;;;;26.23;16.20;;;;;;;5.00;58.23;95174.03;5104679;28;20038;-77
2023/12/26 03:41:48;;;;;;;30.42;17.50;;;;;;;5.00;58.91;95178.72;5105632;28;20032;-78
2023/12/26 03:44:16;;;;;;;34.50;19.50;;;;;;;4.94;59.27;95178.34;5105514;28;20032;-78
2023/12/26 03:46:42;;;;;;;51.28;28.20;;;;;;;4.85;59.44;95175.25;5105210;28;20399;-79
2023/12/26 03:49:08;;;;;;;61.00;31.67;;;;;;;4.80;59.96;95173.69;5105889;28;20089;-77
2023/12/26 03:51:33;;;;;;;46.50;24.40;;;;;;;4.75;60.90;95171.38;5104488;28;20024;-78
2023/12/26 03:53:59;;;;;;;34.03;21.05;;;;;;;4.81;60.54;95174.47;5105971;28;20023;-78
2023/12/26 03:56:32;;;;;;;36.40;19.65;;;;;;;4.86;60.28;95170.56;5106054;28;20027;-78
2023/12/26 03:58:58;;;;;;;30.73;15.10;;;;;;;4.84;58.64;95168.25;5109038;28;20565;-78
2023/12/26 04:01:24;;;;;;;28.33;14.57;;;;;;;4.86;58.62;95179.50;5108988;28;20080;-78
2023/12/26 04:03:49;;;;;;;21.00;12.43;;;;;;;4.88;57.97;95184.59;5107423;28;20055;-78
2023/12/26 04:06:15;;;;;;;23.45;12.75;;;;;;;4.84;57.80;95184.59;5109138;28;20177;-79
2023/12/26 04:08:41;;;;;;;25.95;15.15;;;;;;;4.78;58.01;95186.94;5108184;28;20442;-78
2023/12/26 04:11:07;;;;;;;27.83;15.75;;;;;;;4.76;58.60;95183.06;5109658;27;20106;-77
2023/12/26 04:13:32;;;;;;;21.55;13.95;;;;;;;4.75;58.53;95181.47;5107728;28;20741;-77
2023/12/26 04:15:57;;;;;;;25.38;14.75;;;;;;;4.75;58.55;95184.97;5109280;28;20611;-78
2023/12/26 04:18:23;;;;;;;25.38;13.95;;;;;;;4.77;58.30;95185.38;5108123;28;20073;-78
2023/12/26 04:20:48;;;;;;;22.08;13.25;;;;;;;4.66;58.59;95183.84;5108537;28;20038;-77
2023/12/26 04:23:14;;;;;;;24.45;13.63;;;;;;;4.70;58.28;95188.13;5108480;28;20114;-78
2023/12/26 04:25:39;;;;;;;20.98;12.63;;;;;;;4.72;57.87;95193.19;5108212;28;20121;-79
2023/12/26 04:28:05;;;;;;;20.70;12.93;;;;;;;4.63;58.03;95190.84;5109297;28;20031;-78
2023/12/26 04:30:30;;;;;;;21.40;12.88;;;;;;;4.63;57.84;95200.97;5107392;28;20028;-78
2023/12/26 04:32:56;;;;;;;20.35;12.13;;;;;;;4.58;58.02;95198.63;5109061;28;20030;-76
2023/12/26 04:35:21;;;;;;;18.58;11.77;;;;;;;4.55;57.96;95199.44;5107791;28;20019;-76
2023/12/26 04:37:46;;;;;;;21.88;12.48;;;;;;;4.47;58.00;95199.44;5108420;28;20458;-78
2023/12/26 04:40:12;;;;;;;19.42;12.23;;;;;;;4.49;58.00;95199.81;5107696;27;20027;-78
2023/12/26 04:42:37;;;;;;;22.63;12.48;;;;;;;4.41;58.30;95201.00;5107978;28;20447;-78
2023/12/26 04:45:03;;;;;;;32.85;17.30;;;;;;;4.44;58.38;95204.88;5108607;28;20084;-78
2023/12/26 04:47:29;;;;;;;38.17;21.25;;;;;;;4.38;58.78;95207.22;5106987;28;20114;-78
2023/12/26 04:49:54;;;;;;;38.65;20.85;;;;;;;4.41;58.79;95214.59;5108690;28;20134;-78
2023/12/26 04:52:19;;;;;;;45.25;24.52;;;;;;;4.38;59.60;95209.94;5107043;28;20020;-79
2023/12/26 04:54:45;;;;;;;45.22;25.00;;;;;;;4.36;59.82;95209.56;5108811;28;20466;-77
2023/12/26 04:57:11;;;;;;;40.80;24.02;;;;;;;4.31;59.81;95212.69;5107173;28;20557;-78
2023/12/26 04:59:40;;;;;;;33.53;19.50;;;;;;;4.32;59.61;95210.72;5108086;28;20115;-77
2023/12/26 05:02:06;;;;;;;27.40;15.27;;;;;;;4.31;59.08;95209.97;5108101;28;20027;-78
2023/12/26 05:04:31;;;;;;;26.63;14.95;;;;;;;4.23;58.92;95208.38;5107009;28;20045;-77
2023/12/26 05:06:57;;;;;;;26.88;15.52;;;;;;;4.27;59.12;95211.91;5108257;28;20051;-77
2023/12/26 05:09:22;;;;;;;25.50;14.82;;;;;;;4.25;59.32;95200.63;5106100;28;20108;-78
2023/12/26 05:11:47;;;;;;;27.70;14.98;;;;;;;4.22;58.95;95204.13;5108433;28;20435;-77
2023/12/26 05:14:13;;;;;;;23.13;13.00;;;;;;;4.19;59.16;95205.69;5104989;28;20594;-78
2023/12/26 05:16:42;;;;;;;29.02;13.90;;;;;;;4.23;58.72;95205.66;5107820;28;20036;-78
2023/12/26 05:19:08;;;;;;;21.52;12.85;;;;;;;4.21;59.37;95210.72;5107208;28;20028;-77
2023/12/26 05:21:35;;;;;;;21.75;12.43;;;;;;;4.20;59.38;95201.78;5106944;28;20049;-78
2023/12/26 05:24:00;;;;;;;22.48;12.57;;;;;;;4.22;59.11;95202.19;5107982;28;20016;-78
2023/12/26 05:26:25;;;;;;;21.33;12.68;;;;;;;4.21;59.06;95194.41;5106504;28;20068;-78
2023/12/26 05:28:51;;;;;;;23.77;12.95;;;;;;;4.17;59.25;95191.69;5108100;28;20031;-78
2023/12/26 05:31:20;;;;;;;23.35;13.45;;;;;;;4.12;59.35;95194.00;5106533;28;20024;-78
2023/12/26 05:33:45;;;;;;;22.63;12.10;;;;;;;4.14;59.63;95197.13;5107549;28;20472;-80
2023/12/26 05:36:11;;;;;;;27.15;13.18;;;;;;;4.18;59.61;95187.00;5106934;28;20496;-78
2023/12/26 05:38:39;;;;;;;21.38;12.77;;;;;;;4.15;59.73;95193.25;5106540;28;20027;-79
2023/12/26 05:41:05;;;;;;;21.73;13.70;;;;;;;4.14;59.87;95203.34;5107460;28;20024;-78
2023/12/26 05:43:34;;;;;;;28.50;14.90;;;;;;;4.11;60.05;95195.19;5105951;28;20030;-78
2023/12/26 05:46:02;;;;;;;23.67;12.43;;;;;;;4.16;59.53;95197.50;5107723;28;20035;-78
2023/12/26 05:48:28;;;;;;;27.10;14.05;;;;;;;4.17;59.60;95201.78;5105850;28;20085;-78
2023/12/26 05:50:53;;;;;;;24.50;14.27;;;;;;;4.11;58.74;95200.63;5107216;28;20032;-77
2023/12/26 05:53:18;;;;;;;21.30;13.63;;;;;;;4.06;58.64;95207.22;5106670;28;20019;-79
2023/12/26 05:55:44;;;;;;;23.10;13.52;;;;;;;4.08;58.67;95199.47;5106765;28;20043;-78
2023/12/26 05:58:09;;;;;;;21.02;13.02;;;;;;;4.07;58.73;95210.72;5106715;28;20039;-78
2023/12/26 06:00:34;;;;;;;19.20;11.80;;;;;;;4.06;58.60;95204.50;5106015;28;20034;-77
2023/12/26 06:03:00;;;;;;;17.92;10.63;;;;;;;4.06;58.36;95206.44;5107557;28;20106;-78
2023/12/26 06:05:26;;;;;;;23.90;11.63;;;;;;;4.02;58.39;95208.41;5105526;28;20471;-77
2023/12/26 06:07:51;;;;;;;20.30;12.48;;;;;;;4.03;58.31;95213.44;5107137;28;20126;-77
2023/12/26 06:10:17;;;;;;;17.05;10.85;;;;;;;4.03;58.31;95213.44;5105637;28;20023;-79
2023/12/26 06:12:42;;;;;;;22.70;12.02;;;;;;;3.94;58.46;95216.53;5106677;28;20032;-78
2023/12/26 06:15:08;;;;;;;23.08;13.48;;;;;;;3.85;59.18;95218.88;5105965;28;20035;-78
2023/12/26 06:17:34;;;;;;;25.38;14.40;;;;;;;3.85;59.34;95227.03;5105882;28;20027;-78
2023/12/26 06:20:00;;;;;;;25.88;13.48;;;;;;;3.82;59.45;95219.63;5106968;28;20027;-78
2023/12/26 06:22:25;;;;;;;24.58;13.40;;;;;;;3.86;59.38;95230.53;5105424;28;20046;-78
2023/12/26 06:24:50;;;;;;;21.25;12.85;;;;;;;3.83;59.54;95232.06;5106971;28;20023;-79
2023/12/26 06:27:16;;;;;;;24.77;13.60;;;;;;;3.78;59.85;95220.78;5105021;28;20449;-79
2023/12/26 06:29:41;;;;;;;21.73;13.00;;;;;;;3.72;59.92;95233.97;5106973;28;20102;-79
2023/12/26 06:32:07;;;;;;;23.42;12.35;;;;;;;3.71;59.90;95232.44;5104273;28;20487;-79
2023/12/26 06:34:33;;;;;;;22.33;12.63;;;;;;;3.70;59.58;95233.59;5105971;28;20055;-78
2023/12/26 06:36:58;;;;;;;18.95;11.95;;;;;;;3.75;59.40;95235.94;5106188;28;20543;-79
2023/12/26 06:39:24;;;;;;;23.67;12.80;;;;;;;3.81;59.25;95231.69;5105720;28;20097;-77
2023/12/26 06:41:50;;;;;;;23.83;13.05;;;;;;;3.78;59.27;95232.44;5106907;28;20122;-80
2023/12/26 06:44:15;;;;;;;24.90;14.07;;;;;;;3.81;59.14;95233.63;5105017;28;20164;-79
2023/12/26 06:46:41;;;;;;;24.88;13.65;;;;;;;3.78;59.29;95229.72;5106413;28;20421;-78
2023/12/26 06:49:07;;;;;;;24.45;14.00;;;;;;;3.81;59.20;95228.19;5105192;28;20024;-78
2023/12/26 06:51:33;;;;;;;22.80;14.73;;;;;;;3.83;59.21;95240.22;5106169;28;20042;-79
2023/12/26 06:53:58;;;;;;;25.58;15.73;;;;;;;3.86;59.09;95231.31;5106180;28;20496;-79
2023/12/26 06:56:23;;;;;;;26.65;16.33;;;;;;;3.88;59.27;95236.34;5105371;28;20474;-78
2023/12/26 06:58:49;;;;;;;21.48;15.02;;;;;;;3.92;59.06;95237.91;5106274;28;20024;-79
2023/12/26 07:01:15;;;;;;;22.13;14.95;;;;;;;3.95;59.13;95247.22;5105072;28;20019;-78
2023/12/26 07:03:41;;;;;;;22.95;14.65;;;;;;;4.00;59.06;95242.19;5106417;28;20466;-78
2023/12/26 07:06:06;;;;;;;21.20;14.50;;;;;;;3.98;58.94;95238.31;5105048;28;20050;-77
2023/12/26 07:08:32;;;;;;;21.30;14.90;;;;;;;4.09;58.89;95255.44;5106139;28;20143;-79
2023/12/26 07:10:57;;;;;;;21.65;14.68;;;;;;;4.15;58.77;95242.22;5105708;28;20471;-79
2023/12/26 07:13:23;;;;;;;24.65;15.73;;;;;;;4.23;58.58;95257.38;5105320;28;20028;-78
2023/12/26 07:15:51;;;;;;;23.00;16.17;;;;;;;4.31;58.65;95256.22;5106310;28;20035;-79
2023/12/26 07:18:17;;;;;;;23.80;15.77;;;;;;;4.34;58.47;95266.31;5105101;28;20104;-77
2023/12/26 07:20:42;;;;;;;24.17;15.63;;;;;;;4.40;58.50;95267.50;5106534;28;20024;-78
2023/12/26 07:23:08;;;;;;;23.10;16.08;;;;;;;4.47;58.48;95264.00;5104638;28;20447;-78
2023/12/26 07:25:33;;;;;;;23.83;16.15;;;;;;;4.50;58.20;95269.44;5106197;28;20027;-77
2023/12/26 07:27:58;;;;;;;28.95;17.10;;;;;;;4.57;58.47;95265.16;5104943;28;20031;-80
2023/12/26 07:30:24;;;;;;;25.08;17.05;;;;;;;4.61;58.41;95265.94;5105712;28;20028;-78
2023/12/26 07:32:49;;;;;;;24.40;16.33;;;;;;;4.70;58.43;95266.31;5109611;28;20076;-78
2023/12/26 07:35:15;;;;;;;27.52;17.90;;;;;;;4.80;58.68;95271.75;5109153;28;20108;-79
2023/12/26 07:37:40;;;;;;;27.30;18.35;;;;;;;4.91;58.44;95266.28;5109512;28;20104;-78
2023/12/26 07:40:06;;;;;;;28.42;18.63;;;;;;;5.13;58.01;95269.75;5108817;28;20035;-79
2023/12/26 07:42:31;;;;;;;31.88;18.95;;;;;;;5.41;57.53;95262.66;5109909;28;20053;-79
2023/12/26 07:44:57;;;;;;;30.92;19.02;;;;;;;5.70;57.11;95274.22;5109001;28;20027;-79
2023/12/26 07:47:22;;;;;;;35.83;18.52;;;;;;;6.03;56.40;95270.19;5109805;28;20027;-79
2023/12/26 07:49:48;;;;;;;28.05;19.27;;;;;;;6.38;55.45;95272.69;5108674;28;20297;-78
2023/12/26 07:52:13;;;;;;;34.47;19.48;;;;;;;6.76;54.42;95264.56;5109632;28;20028;-78
2023/12/26 07:54:39;;;;;;;32.85;20.33;;;;;;;7.34;52.96;95270.22;5109346;28;20505;-78
2023/12/26 07:57:04;;;;;;;38.90;24.13;;;;;;;8.29;50.79;95278.41;5108466;28;20033;-78
2023/12/26 07:59:30;;;;;;;32.72;22.33;;;;;;;9.89;46.85;95279.56;5109368;28;20027;-78
2023/12/26 08:01:56;;;;;;;51.92;31.42;;;;;;;11.46;43.25;95278.63;5108206;28;20028;-78
2023/12/26 08:04:22;;;;;;;54.88;34.38;;;;;;;12.71;40.28;95273.03;5109134;27;20490;-78
2023/12/26 08:06:48;;;;;;;53.65;36.58;;;;;;;13.71;38.36;95278.78;5108183;28;20061;-79
2023/12/26 08:09:13;;;;;;;58.80;35.30;;;;;;;14.66;36.26;95272.91;5109569;28;20024;-79
2023/12/26 08:11:39;;;;;;;51.42;36.00;;;;;;;15.38;34.65;95281.88;5108466;28;20030;-78
2023/12/26 08:14:04;;;;;;;55.88;37.35;;;;;;;16.22;33.37;95275.06;5107963;28;20050;-77
2023/12/26 08:16:30;;;;;;;50.97;34.88;;;;;;;17.07;31.86;95289.75;5108880;28;20462;-78
2023/12/26 08:18:57;;;;;;;48.63;33.97;;;;;;;17.68;30.94;95279.19;5107762;28;20504;-78
2023/12/26 08:21:22;;;;;;;47.25;33.85;;;;;;;18.43;29.45;95283.63;5109725;28;20370;-80
2023/12/26 08:23:48;;;;;;;48.47;32.15;;;;;;;19.02;28.46;95286.34;5108040;28;20367;-77
2023/12/26 08:26:13;;;;;;;46.05;30.10;;;;;;;19.62;27.74;95277.34;5109097;28;20268;-79
2023/12/26 08:28:39;;;;;;;40.45;29.73;;;;;;;20.21;26.72;95278.25;5107729;28;20041;-78
2023/12/26 08:31:04;;;;;;;42.17;29.33;;;;;;;20.76;26.03;95289.19;5108596;28;20023;-78
2023/12/26 08:33:31;;;;;;;44.40;29.05;;;;;;;21.17;25.67;95281.34;5108228;28;20043;-79
2023/12/26 08:35:56;;;;;;;43.10;27.90;;;;;;;21.70;24.56;95277.09;5107886;28;20508;-79
2023/12/26 08:38:22;;;;;;;40.65;27.92;;;;;;;22.15;24.28;95280.06;5108612;28;20468;-78
2023/12/26 08:40:49;;;;;;;37.13;25.98;;;;;;;22.57;23.44;95277.59;5107172;28;20028;-78
2023/12/26 08:43:14;;;;;;;36.10;26.80;;;;;;;23.20;22.81;95285.50;5107683;27;20084;-78
2023/12/26 08:45:39;;;;;;;37.97;26.63;;;;;;;23.71;22.09;95277.75;5107591;28;20123;-79
2023/12/26 08:48:05;;;;;;;37.67;26.40;;;;;;;24.19;21.58;95268.84;5108418;28;20459;-79
2023/12/26 08:50:31;;;;;;;41.17;26.63;;;;;;;24.66;20.86;95268.84;5107977;28;20110;-78
2023/12/26 08:52:56;;;;;;;33.33;24.58;;;;;;;25.06;20.58;95272.91;5107789;28;20024;-78
2023/12/26 08:55:21;;;;;;;32.53;22.65;;;;;;;25.50;20.00;95278.59;5108331;28;20494;-78
2023/12/26 08:57:47;;;;;;;29.40;22.65;;;;;;;25.84;19.75;95276.19;5107007;28;20028;-78
2023/12/26 09:00:14;;;;;;;32.63;23.65;;;;;;;26.13;19.35;95264.03;5108325;28;20023;-78
2023/12/26 09:02:44;;;;;;;29.08;21.95;;;;;;;26.42;18.91;95272.91;5107035;27;20035;-78
2023/12/26 09:05:11;;;;;;;29.95;22.58;;;;;;;27.13;18.31;95263.13;5108227;28;20024;-78
2023/12/26 09:07:37;;;;;;;33.13;22.70;;;;;;;27.67;17.63;95261.88;5107285;28;20019;-78
2023/12/26 09:10:03;;;;;;;35.67;22.75;;;;;;;27.83;17.64;95252.34;5107670;28;20124;-78
2023/12/26 09:12:28;;;;;;;29.40;22.08;;;;;;;28.19;17.23;95261.06;5107572;28;20117;-79
2023/12/26 09:14:54;;;;;;;27.33;22.10;;;;;;;28.60;17.04;95256.84;5106552;28;20485;-77
2023/12/26 09:17:19;;;;;;;28.25;21.73;;;;;;;29.03;16.56;95250.69;5108296;28;20023;-77
2023/12/26 09:19:45;;;;;;;30.95;22.02;;;;;;;29.52;16.35;95252.00;5106395;28;20411;-77
2023/12/26 09:22:10;;;;;;;27.17;20.98;;;;;;;29.87;15.94;95248.47;5108032;28;20027;-76
2023/12/26 09:24:36;;;;;;;31.80;22.70;;;;;;;30.03;15.67;95237.22;5106678;28;20374;-77
2023/12/26 09:27:01;;;;;;;24.67;21.13;;;;;;;30.31;15.43;95239.25;5107870;28;20087;-78
2023/12/26 09:29:26;;;;;;;26.23;20.67;;;;;;;30.60;15.24;95237.06;5107150;28;20427;-78
2023/12/26 09:31:54;;;;;;;25.85;20.17;;;;;;;31.03;15.00;95238.31;5107163;28;20481;-77
2023/12/26 09:34:19;;;;;;;25.27;19.50;;;;;;;31.33;14.75;95223.38;5108114;28;20035;-78
2023/12/26 09:36:44;;;;;;;26.67;20.02;;;;;;;31.31;14.67;95220.34;5105846;28;20072;-77
2023/12/26 09:39:10;;;;;;;25.88;20.05;;;;;;;31.43;14.20;95222.25;5107951;28;20020;-77
2023/12/26 09:41:35;;;;;;;25.80;20.02;;;;;;;31.53;14.61;95213.13;5105995;28;20522;-77
2023/12/26 09:44:01;;;;;;;27.50;20.33;;;;;;;31.84;14.37;95211.00;5107532;28;20507;-77
2023/12/26 09:46:28;;;;;;;28.88;20.27;;;;;;;31.96;13.73;95203.56;5106635;28;20119;-78
2023/12/26 09:48:54;;;;;;;28.02;19.60;;;;;;;32.31;13.43;95201.72;5105298;28;20027;-78
2023/12/26 09:51:23;;;;;;;24.55;18.67;;;;;;;32.56;13.19;95201.03;5106078;28;20715;-78
2023/12/26 09:53:59;;;;;;;24.73;19.27;;;;;;;32.57;13.42;95202.53;5105889;28;20042;-77
2023/12/26 09:56:25;;;;;;;22.77;18.10;;;;;;;32.77;13.33;95195.78;5107401;28;20066;-77
2023/12/26 09:58:53;;;;;;;21.15;17.15;;;;;;;32.94;13.29;95198.72;5106200;28;20123;-78
2023/12/26 10:01:20;;;;;;;19.83;15.77;;;;;;;33.07;12.78;95188.38;5107122;27;20044;-78
2023/12/26 10:03:46;;;;;;;20.60;15.38;;;;;;;32.99;12.94;95194.88;5106274;28;20064;-77
2023/12/26 10:06:13;;;;;;;16.58;12.98;;;;;;;33.17;12.58;95189.25;5106517;28;20019;-77
2023/12/26 10:08:40;;;;;;;15.02;11.10;;;;;;;32.90;12.51;95178.44;5106961;28;20096;-77
2023/12/26 10:11:06;;;;;;;16.30;11.35;;;;;;;33.07;12.49;95180.59;5105707;28;20085;-77
2023/12/26 10:13:45;;;;;;;17.70;13.45;;;;;;;33.09;12.53;95186.47;5106604;28;20099;-77
2023/12/26 10:16:11;;;;;;;19.17;13.48;;;;;;;33.27;12.81;95173.75;5105700;28;20444;-78
2023/12/26 10:18:38;;;;;;;18.42;12.90;;;;;;;33.12;12.82;95173.91;5106276;28;20024;-77
2023/12/26 10:21:03;;;;;;;16.90;12.07;;;;;;;32.58;12.70;95170.69;5106211;28;20075;-77
2023/12/26 10:23:29;;;;;;;16.92;12.07;;;;;;;32.77;12.78;95161.63;5105819;28;20052;-77
2023/12/26 10:25:55;;;;;;;17.92;12.10;;;;;;;32.72;12.83;95156.91;5106641;28;20024;-77
2023/12/26 10:28:20;;;;;;;14.60;11.18;;;;;;;32.81;12.92;95159.13;5105530;28;20600;-77
2023/12/26 10:30:46;;;;;;;15.18;12.07;;;;;;;32.80;13.11;95154.00;5105501;28;20111;-77
2023/12/26 10:33:23;;;;;;;17.52;12.25;;;;;;;32.76;12.70;95143.03;5105209;28;20027;-78
2023/12/26 10:36:00;;;;;;;16.65;12.23;;;;;;;33.05;12.67;95154.78;5106377;28;20032;-77
2023/12/26 10:38:26;;;;;;;23.65;14.27;;;;;;;33.29;12.32;95150.38;5106023;28;20031;-77
2023/12/26 10:40:52;;;;;;;19.88;12.23;;;;;;;33.45;12.15;95139.63;5106009;28;20027;-77
2023/12/26 10:43:18;;;;;;;16.88;11.65;;;;;;;33.50;12.44;95147.94;5105168;28;20550;-77
2023/12/26 10:45:44;;;;;;;15.02;11.02;;;;;;;33.56;12.37;95141.97;5103623;28;20118;-77
2023/12/26 10:48:09;;;;;;;15.40;11.07;;;;;;;33.72;11.88;95145.38;5105184;28;20024;-77
2023/12/26 10:50:35;;;;;;;18.92;12.10;;;;;;;34.18;12.11;95142.00;5103762;28;20019;-77
2023/12/26 10:53:04;;;;;;;17.25;11.43;;;;;;;34.34;11.39;95132.66;5105087;28;20040;-77
2023/12/26 10:55:32;;;;;;;14.55;10.15;;;;;;;35.10;11.31;95136.47;5103943;28;20023;-77
2023/12/26 10:58:31;;;;;;;14.13;10.38;;;;;;;35.94;10.58;95134.19;5104553;28;20371;-78
2023/12/26 13:52:27;;;;;;;11.98;7.25;;;;;;;19.36;23.94;94950.34;5106507;28;20054;-77
2023/12/26 13:54:53;;;;;;;11.93;7.60;;;;;;;19.32;24.20;94952.56;5106741;28;20465;-77
2023/12/26 13:57:18;;;;;;;12.48;7.53;;;;;;;19.14;24.59;94947.34;5107042;28;20121;-76
2023/12/26 13:59:43;;;;;;;13.80;7.30;;;;;;;19.08;24.73;94947.31;5105869;28;20027;-77
2023/12/26 14:02:09;;;;;;;16.30;7.60;;;;;;;18.91;25.04;94946.38;5106212;28;20051;-78
2023/12/26 14:04:34;;;;;;;12.65;6.75;;;;;;;18.67;25.26;94944.63;5104297;28;20502;-78
2023/12/26 14:06:59;;;;;;;12.00;7.45;;;;;;;18.59;25.15;94943.50;5107099;28;20024;-78
2023/12/26 14:09:25;;;;;;;11.73;6.78;;;;;;;18.39;25.53;94930.34;5106144;28;20043;-78